sensor_id;sensor_type;location;lat;lon;timestamp;temperature;humidity
13375;DHT22;6756;51.354;15.754;2024-01-11T00:02:53;-11.80;23.10
13375;DHT22;6756;51.354;15.754;2024-01-11T00:06:54;-11.80;21.90
13375;DHT22;6756;51.354;15.754;2024-01-11T00:10:55;-11.80;22.90
13375;DHT22;6756;51.354;15.754;2024-01-11T00:14:55;-11.70;22.80
13375;DHT22;6756;51.354;15.754;2024-01-11T00:18:56;-11.60;31.50
13375;DHT22;6756;51.354;15.754;2024-01-11T00:22:57;-11.40;45.60
13375;DHT22;6756;51.354;15.754;2024-01-11T00:27:01;-11.40;41.50
13375;DHT22;6756;51.354;15.754;2024-01-11T00:31:02;-11.20;61.00
13375;DHT22;6756;51.354;15.754;2024-01-11T00:35:03;-11.10;89.30
13375;DHT22;6756;51.354;15.754;2024-01-11T00:39:04;-11.20;59.10
13375;DHT22;6756;51.354;15.754;2024-01-11T00:43:05;-11.30;47.60
13375;DHT22;6756;51.354;15.754;2024-01-11T00:47:05;-11.40;46.00
13375;DHT22;6756;51.354;15.754;2024-01-11T00:51:06;-11.40;53.60
13375;DHT22;6756;51.354;15.754;2024-01-11T00:55:07;-11.40;55.30
13375;DHT22;6756;51.354;15.754;2024-01-11T00:59:08;-11.20;99.90
13375;DHT22;6756;51.354;15.754;2024-01-11T01:03:09;-10.90;99.90
13375;DHT22;6756;51.354;15.754;2024-01-11T01:07:09;-10.60;99.90
13375;DHT22;6756;51.354;15.754;2024-01-11T01:11:10;-10.20;99.90
13375;DHT22;6756;51.354;15.754;2024-01-11T01:15:11;-10.10;99.90
13375;DHT22;6756;51.354;15.754;2024-01-11T01:19:12;-10.00;99.90
13375;DHT22;6756;51.354;15.754;2024-01-11T01:23:13;-9.80;99.90
13375;DHT22;6756;51.354;15.754;2024-01-11T01:27:14;-9.80;99.90
13375;DHT22;6756;51.354;15.754;2024-01-11T01:31:14;-9.80;99.90
13375;DHT22;6756;51.354;15.754;2024-01-11T01:35:15;-9.70;99.90
13375;DHT22;6756;51.354;15.754;2024-01-11T01:39:16;-9.70;99.90
13375;DHT22;6756;51.354;15.754;2024-01-11T01:43:17;-9.80;99.90
13375;DHT22;6756;51.354;15.754;2024-01-11T01:47:18;-9.90;99.90
13375;DHT22;6756;51.354;15.754;2024-01-11T01:51:19;-10.10;99.90
13375;DHT22;6756;51.354;15.754;2024-01-11T01:55:20;-10.20;99.90
13375;DHT22;6756;51.354;15.754;2024-01-11T01:59:24;-10.00;99.90
13375;DHT22;6756;51.354;15.754;2024-01-11T02:03:27;-9.60;99.90
13375;DHT22;6756;51.354;15.754;2024-01-11T02:07:28;-9.40;99.90
13375;DHT22;6756;51.354;15.754;2024-01-11T02:11:29;-9.50;99.90
13375;DHT22;6756;51.354;15.754;2024-01-11T02:15:30;-9.70;99.90
13375;DHT22;6756;51.354;15.754;2024-01-11T02:19:31;-9.80;99.90
13375;DHT22;6756;51.354;15.754;2024-01-11T02:27:47;-10.20;99.90
13375;DHT22;6756;51.354;15.754;2024-01-11T02:31:48;-10.30;99.90
13375;DHT22;6756;51.354;15.754;2024-01-11T02:35:49;-10.30;99.90
13375;DHT22;6756;51.354;15.754;2024-01-11T02:39:51;-10.30;99.90
13375;DHT22;6756;51.354;15.754;2024-01-11T02:43:55;-10.20;99.90
13375;DHT22;6756;51.354;15.754;2024-01-11T02:47:59;-10.20;99.90
13375;DHT22;6756;51.354;15.754;2024-01-11T02:52:00;-10.20;99.90
13375;DHT22;6756;51.354;15.754;2024-01-11T02:56:03;-10.10;99.90
13375;DHT22;6756;51.354;15.754;2024-01-11T03:00:05;-9.70;99.90
13375;DHT22;6756;51.354;15.754;2024-01-11T03:04:06;-9.30;99.90
13375;DHT22;6756;51.354;15.754;2024-01-11T03:08:07;-8.90;99.90
13375;DHT22;6756;51.354;15.754;2024-01-11T03:12:08;-8.60;99.90
13375;DHT22;6756;51.354;15.754;2024-01-11T03:16:09;-8.50;83.40
13375;DHT22;6756;51.354;15.754;2024-01-11T03:20:10;-8.50;68.10
13375;DHT22;6756;51.354;15.754;2024-01-11T03:24:10;-8.50;55.70
13375;DHT22;6756;51.354;15.754;2024-01-11T03:28:11;-8.50;45.10
13375;DHT22;6756;51.354;15.754;2024-01-11T03:32:12;-8.50;42.70
13375;DHT22;6756;51.354;15.754;2024-01-11T03:36:14;-8.40;39.20
13375;DHT22;6756;51.354;15.754;2024-01-11T03:40:15;-8.40;33.20
13375;DHT22;6756;51.354;15.754;2024-01-11T03:44:16;-8.30;26.70
13375;DHT22;6756;51.354;15.754;2024-01-11T03:48:19;-8.30;20.40
13375;DHT22;6756;51.354;15.754;2024-01-11T03:52:23;-8.30;34.80
13375;DHT22;6756;51.354;15.754;2024-01-11T03:56:24;-8.50;22.00
13375;DHT22;6756;51.354;15.754;2024-01-11T04:00:24;-8.60;24.70
13375;DHT22;6756;51.354;15.754;2024-01-11T04:04:25;-8.60;25.60
13375;DHT22;6756;51.354;15.754;2024-01-11T04:08:26;-8.70;25.70
13375;DHT22;6756;51.354;15.754;2024-01-11T04:12:27;-8.70;31.10
13375;DHT22;6756;51.354;15.754;2024-01-11T04:16:28;-8.70;31.10
13375;DHT22;6756;51.354;15.754;2024-01-11T04:20:28;-8.70;29.50
13375;DHT22;6756;51.354;15.754;2024-01-11T04:24:29;-8.70;28.10
13375;DHT22;6756;51.354;15.754;2024-01-11T04:28:31;-8.60;29.40
13375;DHT22;6756;51.354;15.754;2024-01-11T04:32:31;-8.40;29.70
13375;DHT22;6756;51.354;15.754;2024-01-11T04:36:32;-8.20;23.60
13375;DHT22;6756;51.354;15.754;2024-01-11T04:40:33;-8.10;14.70
13375;DHT22;6756;51.354;15.754;2024-01-11T04:44:34;-8.10;16.80
13375;DHT22;6756;51.354;15.754;2024-01-11T04:48:34;-8.00;16.30
13375;DHT22;6756;51.354;15.754;2024-01-11T04:52:35;-7.80;9.90
13375;DHT22;6756;51.354;15.754;2024-01-11T04:56:36;-7.60;1.00
13375;DHT22;6756;51.354;15.754;2024-01-11T05:00:37;-7.50;1.00
13375;DHT22;6756;51.354;15.754;2024-01-11T05:04:37;-7.20;1.00
13375;DHT22;6756;51.354;15.754;2024-01-11T05:08:38;-7.10;1.00
13375;DHT22;6756;51.354;15.754;2024-01-11T05:12:39;-6.90;6.70
13375;DHT22;6756;51.354;15.754;2024-01-11T05:16:40;-6.80;1.00
13375;DHT22;6756;51.354;15.754;2024-01-11T05:20:43;-6.70;1.00
13375;DHT22;6756;51.354;15.754;2024-01-11T05:24:43;-6.50;1.00
13375;DHT22;6756;51.354;15.754;2024-01-11T05:28:44;-6.60;1.00
13375;DHT22;6756;51.354;15.754;2024-01-11T05:32:45;-6.60;1.00
13375;DHT22;6756;51.354;15.754;2024-01-11T05:36:46;-6.60;1.00
13375;DHT22;6756;51.354;15.754;2024-01-11T05:40:47;-6.40;1.00
13375;DHT22;6756;51.354;15.754;2024-01-11T05:44:48;-6.20;1.00
13375;DHT22;6756;51.354;15.754;2024-01-11T05:48:49;-6.00;1.00
13375;DHT22;6756;51.354;15.754;2024-01-11T05:52:51;-5.80;1.00
13375;DHT22;6756;51.354;15.754;2024-01-11T05:56:52;-5.60;1.00
13375;DHT22;6756;51.354;15.754;2024-01-11T06:00:56;-5.60;1.00
13375;DHT22;6756;51.354;15.754;2024-01-11T06:04:57;-5.60;1.00
13375;DHT22;6756;51.354;15.754;2024-01-11T06:08:58;-5.60;1.00
13375;DHT22;6756;51.354;15.754;2024-01-11T06:12:59;-5.80;1.00
13375;DHT22;6756;51.354;15.754;2024-01-11T06:16:59;-5.80;1.00
13375;DHT22;6756;51.354;15.754;2024-01-11T06:21:00;-5.90;1.00
13375;DHT22;6756;51.354;15.754;2024-01-11T06:25:01;-5.90;1.00
13375;DHT22;6756;51.354;15.754;2024-01-11T06:29:01;-5.90;1.00
13375;DHT22;6756;51.354;15.754;2024-01-11T06:33:02;-5.80;1.00
13375;DHT22;6756;51.354;15.754;2024-01-11T06:37:03;-5.80;1.00
13375;DHT22;6756;51.354;15.754;2024-01-11T06:41:07;-5.80;1.00
13375;DHT22;6756;51.354;15.754;2024-01-11T06:45:09;-5.80;1.00
13375;DHT22;6756;51.354;15.754;2024-01-11T06:49:09;-5.70;1.00
13375;DHT22;6756;51.354;15.754;2024-01-11T06:53:10;-5.60;1.00
13375;DHT22;6756;51.354;15.754;2024-01-11T06:57:11;-5.60;1.00
13375;DHT22;6756;51.354;15.754;2024-01-11T07:01:12;-5.60;1.00
13375;DHT22;6756;51.354;15.754;2024-01-11T07:05:13;-5.60;1.00
13375;DHT22;6756;51.354;15.754;2024-01-11T07:09:14;-5.60;1.00
13375;DHT22;6756;51.354;15.754;2024-01-11T07:13:15;-5.60;1.00
13375;DHT22;6756;51.354;15.754;2024-01-11T07:17:18;-5.60;1.00
13375;DHT22;6756;51.354;15.754;2024-01-11T07:21:22;-5.70;1.00
13375;DHT22;6756;51.354;15.754;2024-01-11T07:25:30;-5.70;1.00
13375;DHT22;6756;51.354;15.754;2024-01-11T07:29:31;-5.70;1.00
13375;DHT22;6756;51.354;15.754;2024-01-11T07:33:32;-5.80;1.00
13375;DHT22;6756;51.354;15.754;2024-01-11T07:37:33;-5.80;1.00
13375;DHT22;6756;51.354;15.754;2024-01-11T07:41:40;-5.90;1.00
13375;DHT22;6756;51.354;15.754;2024-01-11T07:45:41;-5.90;1.00
13375;DHT22;6756;51.354;15.754;2024-01-11T07:49:42;-6.00;1.00
13375;DHT22;6756;51.354;15.754;2024-01-11T07:53:44;-6.00;1.00
13375;DHT22;6756;51.354;15.754;2024-01-11T07:57:47;-5.90;1.00
13375;DHT22;6756;51.354;15.754;2024-01-11T08:01:51;-5.90;1.00
13375;DHT22;6756;51.354;15.754;2024-01-11T08:05:53;-5.70;1.00
13375;DHT22;6756;51.354;15.754;2024-01-11T08:09:54;-5.50;1.00
13375;DHT22;6756;51.354;15.754;2024-01-11T08:13:55;-5.20;1.00
13375;DHT22;6756;51.354;15.754;2024-01-11T08:17:59;-5.00;1.00
13375;DHT22;6756;51.354;15.754;2024-01-11T08:22:01;-4.80;1.00
13375;DHT22;6756;51.354;15.754;2024-01-11T08:26:03;-4.60;1.00
13375;DHT22;6756;51.354;15.754;2024-01-11T08:30:04;-4.40;1.00
13375;DHT22;6756;51.354;15.754;2024-01-11T08:34:05;-4.20;1.00
13375;DHT22;6756;51.354;15.754;2024-01-11T08:38:06;-4.20;1.00
13375;DHT22;6756;51.354;15.754;2024-01-11T08:42:07;-4.20;1.00
13375;DHT22;6756;51.354;15.754;2024-01-11T08:46:08;-4.10;1.00
13375;DHT22;6756;51.354;15.754;2024-01-11T08:50:12;-4.10;1.00
13375;DHT22;6756;51.354;15.754;2024-01-11T08:54:13;-4.10;1.00
13375;DHT22;6756;51.354;15.754;2024-01-11T08:58:16;-4.00;1.00
13375;DHT22;6756;51.354;15.754;2024-01-11T09:02:17;-4.10;1.00
13375;DHT22;6756;51.354;15.754;2024-01-11T09:06:18;-4.10;1.00
13375;DHT22;6756;51.354;15.754;2024-01-11T09:10:19;-4.10;1.00
13375;DHT22;6756;51.354;15.754;2024-01-11T09:14:19;-4.20;1.00
13375;DHT22;6756;51.354;15.754;2024-01-11T09:18:21;-4.20;1.00
13375;DHT22;6756;51.354;15.754;2024-01-11T09:22:22;-4.10;1.00
13375;DHT22;6756;51.354;15.754;2024-01-11T09:26:22;-4.10;1.00
13375;DHT22;6756;51.354;15.754;2024-01-11T09:30:23;-4.10;1.00
13375;DHT22;6756;51.354;15.754;2024-01-11T09:34:24;-3.90;1.00
13375;DHT22;6756;51.354;15.754;2024-01-11T09:38:24;-3.80;1.00
13375;DHT22;6756;51.354;15.754;2024-01-11T09:42:25;-3.70;1.00
13375;DHT22;6756;51.354;15.754;2024-01-11T09:46:26;-3.60;1.00
13375;DHT22;6756;51.354;15.754;2024-01-11T09:50:28;-3.50;1.00
13375;DHT22;6756;51.354;15.754;2024-01-11T09:54:31;-3.30;1.00
13375;DHT22;6756;51.354;15.754;2024-01-11T09:58:34;-3.10;1.00
13375;DHT22;6756;51.354;15.754;2024-01-11T10:02:40;-2.90;1.00
13375;DHT22;6756;51.354;15.754;2024-01-11T10:06:41;-2.90;1.00
13375;DHT22;6756;51.354;15.754;2024-01-11T10:10:42;-2.80;1.00
13375;DHT22;6756;51.354;15.754;2024-01-11T10:14:43;-2.70;1.00
13375;DHT22;6756;51.354;15.754;2024-01-11T10:18:43;-2.60;1.00
13375;DHT22;6756;51.354;15.754;2024-01-11T10:22:46;-2.70;1.00
13375;DHT22;6756;51.354;15.754;2024-01-11T10:26:47;-2.70;1.00
13375;DHT22;6756;51.354;15.754;2024-01-11T10:30:50;-2.50;1.00
13375;DHT22;6756;51.354;15.754;2024-01-11T10:34:52;-2.40;1.00
13375;DHT22;6756;51.354;15.754;2024-01-11T10:38:53;-2.50;1.00
13375;DHT22;6756;51.354;15.754;2024-01-11T10:42:59;-2.40;1.00
13375;DHT22;6756;51.354;15.754;2024-01-11T10:47:03;-2.40;1.00
13375;DHT22;6756;51.354;15.754;2024-01-11T10:51:12;-2.30;1.00
13375;DHT22;6756;51.354;15.754;2024-01-11T10:55:13;-2.40;1.00
13375;DHT22;6756;51.354;15.754;2024-01-11T10:59:13;-2.40;1.00
13375;DHT22;6756;51.354;15.754;2024-01-11T11:03:16;-2.50;1.00
13375;DHT22;6756;51.354;15.754;2024-01-11T11:07:18;-2.60;1.00
13375;DHT22;6756;51.354;15.754;2024-01-11T11:11:19;-2.70;1.00
13375;DHT22;6756;51.354;15.754;2024-01-11T11:15:22;-2.80;1.00
13375;DHT22;6756;51.354;15.754;2024-01-11T11:19:25;-2.80;1.00
13375;DHT22;6756;51.354;15.754;2024-01-11T11:23:26;-2.70;1.00
13375;DHT22;6756;51.354;15.754;2024-01-11T11:27:26;-2.60;1.00
13375;DHT22;6756;51.354;15.754;2024-01-11T11:35:40;-2.30;1.00
13375;DHT22;6756;51.354;15.754;2024-01-11T11:39:42;-2.30;1.00
13375;DHT22;6756;51.354;15.754;2024-01-11T11:43:43;-2.40;1.00
13375;DHT22;6756;51.354;15.754;2024-01-11T11:47:48;-2.30;1.00
13375;DHT22;6756;51.354;15.754;2024-01-11T11:51:49;-2.20;1.00
13375;DHT22;6756;51.354;15.754;2024-01-11T11:55:50;-2.20;1.00
13375;DHT22;6756;51.354;15.754;2024-01-11T11:59:52;-2.20;1.00
13375;DHT22;6756;51.354;15.754;2024-01-11T12:04:02;-2.20;1.00
13375;DHT22;6756;51.354;15.754;2024-01-11T12:08:03;-2.30;1.00
13375;DHT22;6756;51.354;15.754;2024-01-11T12:12:04;-2.30;1.00
13375;DHT22;6756;51.354;15.754;2024-01-11T12:16:05;-2.40;1.00
13375;DHT22;6756;51.354;15.754;2024-01-11T12:20:06;-2.40;1.00
13375;DHT22;6756;51.354;15.754;2024-01-11T12:24:07;-2.50;1.00
13375;DHT22;6756;51.354;15.754;2024-01-11T12:28:09;-2.60;1.00
13375;DHT22;6756;51.354;15.754;2024-01-11T12:32:09;-2.70;1.00
13375;DHT22;6756;51.354;15.754;2024-01-11T12:36:16;-2.80;1.00
13375;DHT22;6756;51.354;15.754;2024-01-11T12:40:17;-2.70;1.00
13375;DHT22;6756;51.354;15.754;2024-01-11T12:44:18;-2.80;1.00
13375;DHT22;6756;51.354;15.754;2024-01-11T12:48:24;-2.90;1.00
13375;DHT22;6756;51.354;15.754;2024-01-11T12:52:25;-2.70;1.00
13375;DHT22;6756;51.354;15.754;2024-01-11T12:56:27;-2.70;1.00
13375;DHT22;6756;51.354;15.754;2024-01-11T13:00:29;-2.70;1.00
13375;DHT22;6756;51.354;15.754;2024-01-11T13:04:29;-2.70;1.00
13375;DHT22;6756;51.354;15.754;2024-01-11T13:08:33;-2.80;1.00
13375;DHT22;6756;51.354;15.754;2024-01-11T13:12:36;-2.70;1.00
13375;DHT22;6756;51.354;15.754;2024-01-11T13:16:37;-2.60;1.00
13375;DHT22;6756;51.354;15.754;2024-01-11T13:20:38;-2.50;1.00
13375;DHT22;6756;51.354;15.754;2024-01-11T13:24:38;-2.50;1.00
13375;DHT22;6756;51.354;15.754;2024-01-11T13:28:39;-2.50;1.00
13375;DHT22;6756;51.354;15.754;2024-01-11T13:32:41;-2.40;1.00
13375;DHT22;6756;51.354;15.754;2024-01-11T13:36:42;-2.40;1.00
13375;DHT22;6756;51.354;15.754;2024-01-11T13:40:42;-2.40;1.00
13375;DHT22;6756;51.354;15.754;2024-01-11T13:44:44;-2.30;1.00
13375;DHT22;6756;51.354;15.754;2024-01-11T13:48:44;-2.30;1.00
13375;DHT22;6756;51.354;15.754;2024-01-11T13:52:45;-2.30;1.00
13375;DHT22;6756;51.354;15.754;2024-01-11T13:56:46;-2.40;1.00
13375;DHT22;6756;51.354;15.754;2024-01-11T14:00:47;-2.50;1.00
13375;DHT22;6756;51.354;15.754;2024-01-11T14:04:50;-2.60;1.00
13375;DHT22;6756;51.354;15.754;2024-01-11T14:08:51;-2.70;1.00
13375;DHT22;6756;51.354;15.754;2024-01-11T14:12:52;-2.70;1.00
13375;DHT22;6756;51.354;15.754;2024-01-11T14:16:53;-2.70;1.00
13375;DHT22;6756;51.354;15.754;2024-01-11T14:20:54;-2.80;1.00
13375;DHT22;6756;51.354;15.754;2024-01-11T14:24:54;-2.80;1.00
13375;DHT22;6756;51.354;15.754;2024-01-11T14:28:55;-2.80;1.00
13375;DHT22;6756;51.354;15.754;2024-01-11T14:32:57;-2.90;1.00
13375;DHT22;6756;51.354;15.754;2024-01-11T14:36:58;-2.90;1.00
13375;DHT22;6756;51.354;15.754;2024-01-11T14:41:01;-3.00;1.00
13375;DHT22;6756;51.354;15.754;2024-01-11T14:45:04;-3.00;1.00
13375;DHT22;6756;51.354;15.754;2024-01-11T14:49:05;-2.90;1.00
13375;DHT22;6756;51.354;15.754;2024-01-11T14:53:08;-2.90;1.00
13375;DHT22;6756;51.354;15.754;2024-01-11T14:57:09;-3.00;1.00
13375;DHT22;6756;51.354;15.754;2024-01-11T15:01:09;-3.00;1.00
13375;DHT22;6756;51.354;15.754;2024-01-11T15:05:10;-3.00;1.00
13375;DHT22;6756;51.354;15.754;2024-01-11T15:09:14;-3.00;1.00
13375;DHT22;6756;51.354;15.754;2024-01-11T15:13:15;-3.00;1.00
13375;DHT22;6756;51.354;15.754;2024-01-11T15:17:17;-3.00;1.00
13375;DHT22;6756;51.354;15.754;2024-01-11T15:21:19;-3.00;1.00
13375;DHT22;6756;51.354;15.754;2024-01-11T15:25:19;-3.00;1.00
13375;DHT22;6756;51.354;15.754;2024-01-11T15:29:21;-3.10;1.00
13375;DHT22;6756;51.354;15.754;2024-01-11T15:33:22;-3.10;1.00
13375;DHT22;6756;51.354;15.754;2024-01-11T15:37:23;-3.10;1.00
13375;DHT22;6756;51.354;15.754;2024-01-11T15:41:26;-3.10;1.00
13375;DHT22;6756;51.354;15.754;2024-01-11T15:45:26;-3.20;1.70
13375;DHT22;6756;51.354;15.754;2024-01-11T15:49:27;-3.20;22.50
13375;DHT22;6756;51.354;15.754;2024-01-11T15:53:28;-3.20;52.20
13375;DHT22;6756;51.354;15.754;2024-01-11T15:57:30;-3.20;91.90
13375;DHT22;6756;51.354;15.754;2024-01-11T16:01:30;-3.20;99.90
13375;DHT22;6756;51.354;15.754;2024-01-11T16:05:36;-3.20;99.90
13375;DHT22;6756;51.354;15.754;2024-01-11T16:09:37;-3.30;99.90
13375;DHT22;6756;51.354;15.754;2024-01-11T16:13:38;-3.30;99.90
13375;DHT22;6756;51.354;15.754;2024-01-11T16:17:40;-3.30;99.90
13375;DHT22;6756;51.354;15.754;2024-01-11T16:21:41;-3.30;99.90
13375;DHT22;6756;51.354;15.754;2024-01-11T16:25:43;-3.30;1.00
13375;DHT22;6756;51.354;15.754;2024-01-11T16:29:44;-3.30;1.00
13375;DHT22;6756;51.354;15.754;2024-01-11T16:33:45;-3.30;68.00
13375;DHT22;6756;51.354;15.754;2024-01-11T16:37:46;-3.30;99.90
13375;DHT22;6756;51.354;15.754;2024-01-11T16:41:47;-3.30;99.90
13375;DHT22;6756;51.354;15.754;2024-01-11T16:45:49;-3.30;1.00
13375;DHT22;6756;51.354;15.754;2024-01-11T16:49:49;-3.20;1.00
13375;DHT22;6756;51.354;15.754;2024-01-11T16:53:50;-3.20;1.00
13375;DHT22;6756;51.354;15.754;2024-01-11T16:57:51;-3.30;99.90
13375;DHT22;6756;51.354;15.754;2024-01-11T17:01:52;-3.30;1.00
13375;DHT22;6756;51.354;15.754;2024-01-11T17:05:53;-3.30;52.70
13375;DHT22;6756;51.354;15.754;2024-01-11T17:09:56;-3.30;99.90
13375;DHT22;6756;51.354;15.754;2024-01-11T17:13:57;-3.30;99.90
13375;DHT22;6756;51.354;15.754;2024-01-11T17:17:58;-3.30;99.90
13375;DHT22;6756;51.354;15.754;2024-01-11T17:22:00;-3.30;1.00
13375;DHT22;6756;51.354;15.754;2024-01-11T17:26:02;-3.30;1.00
13375;DHT22;6756;51.354;15.754;2024-01-11T17:30:05;-3.30;99.90
13375;DHT22;6756;51.354;15.754;2024-01-11T17:34:08;-3.30;54.40
13375;DHT22;6756;51.354;15.754;2024-01-11T17:38:09;-3.30;1.00
13375;DHT22;6756;51.354;15.754;2024-01-11T17:42:12;-3.30;1.00
13375;DHT22;6756;51.354;15.754;2024-01-11T17:46:12;-3.30;1.00
13375;DHT22;6756;51.354;15.754;2024-01-11T17:50:13;-3.30;1.00
13375;DHT22;6756;51.354;15.754;2024-01-11T17:54:14;-3.30;1.00
13375;DHT22;6756;51.354;15.754;2024-01-11T17:58:15;-3.30;1.00
13375;DHT22;6756;51.354;15.754;2024-01-11T18:02:16;-3.30;1.00
13375;DHT22;6756;51.354;15.754;2024-01-11T18:06:17;-3.20;1.00
13375;DHT22;6756;51.354;15.754;2024-01-11T18:10:18;-3.20;1.00
13375;DHT22;6756;51.354;15.754;2024-01-11T18:14:21;-3.20;1.00
13375;DHT22;6756;51.354;15.754;2024-01-11T18:18:22;-3.20;1.00
13375;DHT22;6756;51.354;15.754;2024-01-11T18:22:23;-3.20;1.00
13375;DHT22;6756;51.354;15.754;2024-01-11T18:26:26;-3.20;99.90
13375;DHT22;6756;51.354;15.754;2024-01-11T18:30:27;-3.20;99.90
13375;DHT22;6756;51.354;15.754;2024-01-11T18:34:28;-3.20;99.90
13375;DHT22;6756;51.354;15.754;2024-01-11T18:38:29;-3.20;99.90
13375;DHT22;6756;51.354;15.754;2024-01-11T18:42:31;-3.20;99.90
13375;DHT22;6756;51.354;15.754;2024-01-11T18:46:36;-3.20;99.90
13375;DHT22;6756;51.354;15.754;2024-01-11T18:50:38;-3.20;99.90
13375;DHT22;6756;51.354;15.754;2024-01-11T18:54:40;-3.20;99.90
13375;DHT22;6756;51.354;15.754;2024-01-11T18:58:41;-3.20;99.90
13375;DHT22;6756;51.354;15.754;2024-01-11T19:02:42;-3.20;99.90
13375;DHT22;6756;51.354;15.754;2024-01-11T19:06:44;-3.30;99.90
13375;DHT22;6756;51.354;15.754;2024-01-11T19:10:45;-3.30;99.90
13375;DHT22;6756;51.354;15.754;2024-01-11T19:14:46;-3.20;99.90
13375;DHT22;6756;51.354;15.754;2024-01-11T19:18:47;-3.20;99.90
13375;DHT22;6756;51.354;15.754;2024-01-11T19:22:48;-3.30;99.90
13375;DHT22;6756;51.354;15.754;2024-01-11T19:26:49;-3.30;99.90
13375;DHT22;6756;51.354;15.754;2024-01-11T19:30:53;-3.30;99.90
13375;DHT22;6756;51.354;15.754;2024-01-11T19:34:54;-3.30;99.90
13375;DHT22;6756;51.354;15.754;2024-01-11T19:38:55;-3.30;99.90
13375;DHT22;6756;51.354;15.754;2024-01-11T19:43:01;-3.30;99.90
13375;DHT22;6756;51.354;15.754;2024-01-11T19:47:02;-3.30;99.90
13375;DHT22;6756;51.354;15.754;2024-01-11T19:51:04;-3.30;99.90
13375;DHT22;6756;51.354;15.754;2024-01-11T19:55:09;-3.30;99.90
13375;DHT22;6756;51.354;15.754;2024-01-11T19:59:14;-3.30;99.90
13375;DHT22;6756;51.354;15.754;2024-01-11T20:03:17;-3.30;99.90
13375;DHT22;6756;51.354;15.754;2024-01-11T20:07:19;-3.20;99.90
13375;DHT22;6756;51.354;15.754;2024-01-11T20:11:20;-3.20;99.90
13375;DHT22;6756;51.354;15.754;2024-01-11T20:15:22;-3.20;99.90
13375;DHT22;6756;51.354;15.754;2024-01-11T20:19:23;-3.20;1.00
13375;DHT22;6756;51.354;15.754;2024-01-11T20:23:25;-3.30;1.00
13375;DHT22;6756;51.354;15.754;2024-01-11T20:27:26;-3.30;1.00
13375;DHT22;6756;51.354;15.754;2024-01-11T20:31:27;-3.30;94.50
13375;DHT22;6756;51.354;15.754;2024-01-11T20:35:28;-3.30;99.90
13375;DHT22;6756;51.354;15.754;2024-01-11T20:39:28;-3.40;99.90
13375;DHT22;6756;51.354;15.754;2024-01-11T20:43:29;-3.40;6.70
13375;DHT22;6756;51.354;15.754;2024-01-11T20:47:30;-3.40;99.90
13375;DHT22;6756;51.354;15.754;2024-01-11T20:51:32;-3.40;65.10
13375;DHT22;6756;51.354;15.754;2024-01-11T20:55:33;-3.40;1.00
13375;DHT22;6756;51.354;15.754;2024-01-11T20:59:33;-3.40;99.90
13375;DHT22;6756;51.354;15.754;2024-01-11T21:03:35;-3.40;99.90
13375;DHT22;6756;51.354;15.754;2024-01-11T21:07:39;-3.40;1.00
13375;DHT22;6756;51.354;15.754;2024-01-11T21:11:40;-3.40;1.00
13375;DHT22;6756;51.354;15.754;2024-01-11T21:15:41;-3.40;70.60
13375;DHT22;6756;51.354;15.754;2024-01-11T21:19:41;-3.40;99.90
13375;DHT22;6756;51.354;15.754;2024-01-11T21:23:42;-3.40;99.90
13375;DHT22;6756;51.354;15.754;2024-01-11T21:27:43;-3.50;99.90
13375;DHT22;6756;51.354;15.754;2024-01-11T21:31:44;-3.40;99.90
13375;DHT22;6756;51.354;15.754;2024-01-11T21:35:46;-3.50;1.00
13375;DHT22;6756;51.354;15.754;2024-01-11T21:39:47;-3.50;99.90
13375;DHT22;6756;51.354;15.754;2024-01-11T21:43:48;-3.40;99.90
13375;DHT22;6756;51.354;15.754;2024-01-11T21:47:49;-3.40;99.90
13375;DHT22;6756;51.354;15.754;2024-01-11T21:51:49;-3.40;99.90
13375;DHT22;6756;51.354;15.754;2024-01-11T21:55:50;-3.40;99.90
13375;DHT22;6756;51.354;15.754;2024-01-11T21:59:51;-3.40;99.90
13375;DHT22;6756;51.354;15.754;2024-01-11T22:03:52;-3.30;99.90
13375;DHT22;6756;51.354;15.754;2024-01-11T22:07:53;-3.30;99.90
13375;DHT22;6756;51.354;15.754;2024-01-11T22:11:55;-3.30;99.90
13375;DHT22;6756;51.354;15.754;2024-01-11T22:15:56;-3.30;99.90
13375;DHT22;6756;51.354;15.754;2024-01-11T22:19:56;-3.30;19.60
13375;DHT22;6756;51.354;15.754;2024-01-11T22:23:57;-3.30;1.00
13375;DHT22;6756;51.354;15.754;2024-01-11T22:27:58;-3.20;1.00
13375;DHT22;6756;51.354;15.754;2024-01-11T22:31:59;-3.20;1.00
13375;DHT22;6756;51.354;15.754;2024-01-11T22:36:00;-3.20;1.00
13375;DHT22;6756;51.354;15.754;2024-01-11T22:40:01;-3.20;1.00
13375;DHT22;6756;51.354;15.754;2024-01-11T22:44:03;-3.20;1.00
13375;DHT22;6756;51.354;15.754;2024-01-11T22:48:07;-3.20;99.90
13375;DHT22;6756;51.354;15.754;2024-01-11T22:52:08;-3.10;1.00
13375;DHT22;6756;51.354;15.754;2024-01-11T22:56:10;-3.20;1.00
13375;DHT22;6756;51.354;15.754;2024-01-11T23:00:11;-3.10;99.90
13375;DHT22;6756;51.354;15.754;2024-01-11T23:04:30;-3.10;99.90
13375;DHT22;6756;51.354;15.754;2024-01-11T23:08:31;-3.10;1.00
13375;DHT22;6756;51.354;15.754;2024-01-11T23:12:32;-3.00;99.90
13375;DHT22;6756;51.354;15.754;2024-01-11T23:16:33;-3.00;99.90
13375;DHT22;6756;51.354;15.754;2024-01-11T23:20:36;-3.00;99.90
13375;DHT22;6756;51.354;15.754;2024-01-11T23:24:37;-2.90;1.00
13375;DHT22;6756;51.354;15.754;2024-01-11T23:28:41;-2.90;99.90
13375;DHT22;6756;51.354;15.754;2024-01-11T23:32:41;-2.90;57.40
13375;DHT22;6756;51.354;15.754;2024-01-11T23:36:42;-2.90;1.00
13375;DHT22;6756;51.354;15.754;2024-01-11T23:40:43;-2.90;1.00
13375;DHT22;6756;51.354;15.754;2024-01-11T23:44:44;-2.90;99.90
13375;DHT22;6756;51.354;15.754;2024-01-11T23:48:44;-2.90;99.90
13375;DHT22;6756;51.354;15.754;2024-01-11T23:52:45;-2.90;99.90
13375;DHT22;6756;51.354;15.754;2024-01-11T23:56:46;-2.90;1.00
